Toledo, OR (97391)

3:40 PM PST on February 12, 2016 (GMT -0800)
Toledo | | Change Station
CLOSE
Current Station
Personal Weather Station
Location: Toledo, OR
Elevation: 148 ft
Nearby Weather Stations

Elev 148 ft 44.61 °N, 123.92 °W | Updated 20 seconds ago

Mostly Cloudy
Mostly Cloudy
56.7 °F
Feels Like 56.7 °F
N
0.0
Wind Variable Wind from West
Gusts 0.0 mph

Today
High -- | Low -- °F
--% Chance of Precip.
Yesterday
High -- | Low -- °F
Precip. -- in
Pressure 30.26 in
Visibility 4.0 miles
Clouds Mostly Cloudy 400 ft
Mostly Cloudy 4400 ft
Dew Point 52 °F
Humidity 85%
Rainfall 0.36 in
Snow Depth Not available.
7:20 AM 5:39 PM
Waxing Crescent, 24% visible
METAR KONP 122335Z AUTO 21006KT 4SM BR BKN004 BKN044 11/11 A3026 RMK AO2
Pressure 30.26 in
Visibility 4.0 miles
Clouds Mostly Cloudy 400 ft
Mostly Cloudy 4400 ft
Dew Point 52 °F
Humidity 85%
Rainfall 0.36 in
Snow Depth Not available.
7:20 AM 5:39 PM
Waxing Crescent, 24% visible
METAR KONP 122335Z AUTO 21006KT 4SM BR BKN004 BKN044 11/11 A3026 RMK AO2

10-Day Weather Forecast

Almanac

Astronomy

Feb. 12, 2016 Rise Set
Actual Time
Civil Twilight
Nautical Twilight
Astronomical Twilight
Moon
Length of Visible Light
Length of Day
Tomorrow will be .
, % of the Moon is Illuminated

Today's Extremes

State Highs State Lows

Community

WunderPhotos

Upload Photos

1,892,437 photos uploaded!

WunderBlog® & News

Nearby

Air Quality

  Air Quality AQ Index Pollutant
Not available.

Snow Depth

Station Depth Elevation

Earthquake Activity

City Distance Mag. Time & Date
Minimum magnitude displayed is 2.5.

Coastal Water Temperatures

Place Temperature

Stations

Nearby Weather Stations

Station Location Temp. Windchill Dew Point Humidity Wind Precip. Elev Updated Type
                   

Watches & Warnings

There are currently no watches in effect.